createdAt,value
2019-02-05T00:01:24.341Z,99504.77
2019-02-05T00:03:52.477Z,99503.48
2019-02-05T00:06:21.028Z,99484.70
2019-02-05T00:08:49.203Z,99479.16
2019-02-05T00:11:17.371Z,99474.61
2019-02-05T00:13:45.347Z,99470.95
2019-02-05T00:16:13.450Z,99469.26
2019-02-05T00:18:41.486Z,99469.64
2019-02-05T00:21:09.496Z,99468.90
2019-02-05T00:23:37.498Z,99468.00
2019-02-05T00:26:06.550Z,99476.96
2019-02-05T00:28:34.769Z,99483.16
2019-02-05T00:31:02.817Z,99491.51
2019-02-05T00:33:30.915Z,99500.11
2019-02-05T00:35:58.883Z,99496.72
2019-02-05T00:38:27.549Z,99499.31
2019-02-05T00:40:55.573Z,99502.59
2019-02-05T00:43:23.584Z,99500.81
2019-02-05T00:45:51.601Z,99502.17
2019-02-05T00:48:19.759Z,99508.61
2019-02-05T00:50:47.773Z,99513.30
2019-02-05T00:53:16.039Z,99513.30
2019-02-05T00:55:44.558Z,99512.50
2019-02-05T00:58:12.522Z,99504.23
2019-02-05T01:00:40.520Z,99502.88
2019-02-05T01:03:08.485Z,99499.95
2019-02-05T01:05:36.497Z,99494.94
2019-02-05T01:08:04.524Z,99487.33
2019-02-05T01:10:32.552Z,99486.87
2019-02-05T01:13:00.506Z,99487.05
2019-02-05T01:15:28.562Z,99485.30
2019-02-05T01:17:56.580Z,99483.19
2019-02-05T01:20:24.677Z,99485.73
2019-02-05T01:22:52.698Z,99479.10
2019-02-05T01:25:20.869Z,99482.99
2019-02-05T01:27:49.203Z,99477.59
2019-02-05T01:30:20.353Z,99481.92
2019-02-05T01:32:48.463Z,99471.72
2019-02-05T01:35:16.462Z,99473.40
2019-02-05T01:37:44.491Z,99476.36
2019-02-05T01:40:14.889Z,99476.05
2019-02-05T01:42:43.261Z,99475.67
2019-02-05T01:45:14.876Z,99478.20
2019-02-05T01:47:43.160Z,99470.99
2019-02-05T01:50:13.313Z,99470.30
2019-02-05T01:52:41.357Z,99463.62
2019-02-05T01:55:10.069Z,99461.87
2019-02-05T01:57:38.381Z,99453.92
2019-02-05T02:00:10.147Z,99443.41
2019-02-05T02:02:38.130Z,99449.28
2019-02-05T02:05:06.206Z,99445.48
2019-02-05T02:07:34.229Z,99437.34
2019-02-05T02:10:02.192Z,99426.42
2019-02-05T02:12:30.419Z,99436.16
2019-02-05T02:14:59.405Z,99438.69
2019-02-05T02:17:27.422Z,99437.08
2019-02-05T02:19:55.496Z,99437.23
2019-02-05T02:22:23.482Z,99435.47
2019-02-05T02:24:51.933Z,99436.73
2019-02-05T02:27:20.910Z,99431.68
2019-02-05T02:29:49.350Z,99436.35
2019-02-05T02:32:17.360Z,99431.36
2019-02-05T02:34:45.358Z,99427.98
2019-02-05T02:37:13.601Z,99423.77
2019-02-05T02:39:41.853Z,99419.44
2019-02-05T02:42:10.027Z,99424.96
2019-02-05T02:44:38.090Z,99424.66
2019-02-05T02:47:06.562Z,99424.27
2019-02-05T02:49:34.789Z,99416.18
2019-02-05T02:52:03.168Z,99416.45
2019-02-05T02:54:31.310Z,99403.88
2019-02-05T02:57:04.954Z,99404.91
2019-02-05T02:59:29.146Z,99400.69
2019-02-05T03:01:57.520Z,99399.34
2019-02-05T03:04:25.579Z,99405.74
2019-02-05T03:06:54.412Z,99410.00
2019-02-05T03:09:23.802Z,99409.86
2019-02-05T03:11:52.168Z,99401.49
2019-02-05T03:14:20.168Z,99394.89
2019-02-05T03:16:48.137Z,99397.03
2019-02-05T03:19:16.460Z,99391.63
2019-02-05T03:21:44.761Z,99398.33
2019-02-05T03:24:12.731Z,99396.72
2019-02-05T03:26:40.713Z,99402.12
2019-02-05T03:29:09.060Z,99403.39
2019-02-05T03:31:37.117Z,99411.44
2019-02-05T03:34:05.177Z,99419.03
2019-02-05T03:36:33.134Z,99423.30
2019-02-05T03:39:01.145Z,99431.47
2019-02-05T03:41:30.931Z,99428.55
2019-02-05T03:43:58.937Z,99437.87
2019-02-05T03:46:28.187Z,99426.89
2019-02-05T03:48:56.414Z,99424.72
2019-02-05T03:52:13.539Z,99426.89
2019-02-05T03:55:30.733Z,99426.41
2019-02-05T03:58:28.879Z,99429.42
2019-02-05T04:02:25.096Z,99436.55
2019-02-05T04:05:34.846Z,99433.94
2019-02-05T04:08:28.011Z,99428.39
2019-02-05T04:12:03.478Z,99423.59
2019-02-05T04:15:23.578Z,99417.25
2019-02-05T04:18:34.941Z,99427.28
2019-02-05T04:22:04.170Z,99431.83
2019-02-05T04:25:36.349Z,99431.52
2019-02-05T04:28:39.122Z,99435.83
2019-02-05T04:31:59.414Z,99440.93
2019-02-05T04:35:31.440Z,99441.89
2019-02-05T04:38:35.067Z,99449.61
2019-02-05T04:41:30.687Z,99451.75
2019-02-05T04:44:24.484Z,99446.76
2019-02-05T04:47:54.121Z,99451.82
2019-02-05T04:51:01.867Z,99446.27
2019-02-05T04:54:03.049Z,99455.92
2019-02-05T04:57:06.228Z,99451.70
2019-02-05T05:00:27.933Z,99450.06
2019-02-05T05:04:21.443Z,99457.66
2019-02-05T05:07:30.490Z,99451.87
2019-02-05T05:10:01.616Z,99452.34
2019-02-05T05:12:30.844Z,99462.84
2019-02-05T05:14:59.561Z,99461.95
2019-02-05T05:17:27.649Z,99461.61
2019-02-05T05:19:55.731Z,99465.80
2019-02-05T05:22:23.970Z,99470.44
2019-02-05T05:24:51.921Z,99474.67
2019-02-05T05:27:21.060Z,99472.17
2019-02-05T05:29:49.082Z,99467.06
2019-02-05T05:32:17.138Z,99459.08
2019-02-05T05:34:45.190Z,99469.61
2019-02-05T05:37:11.655Z,99478.88
2019-02-05T05:39:39.612Z,99479.77
2019-02-05T05:42:07.571Z,99482.69
2019-02-05T05:44:35.839Z,99486.09
2019-02-05T05:47:04.286Z,99483.56
2019-02-05T05:49:32.757Z,99482.70
2019-02-05T05:52:00.980Z,99490.27
2019-02-05T05:54:29.047Z,99490.27
2019-02-05T05:56:57.063Z,99489.41
2019-02-05T05:59:25.166Z,99483.55
2019-02-05T06:01:53.233Z,99486.02
2019-02-05T06:04:21.669Z,99486.44
2019-02-05T06:06:49.945Z,99484.81
2019-02-05T06:09:17.880Z,99482.66
2019-02-05T06:11:45.884Z,99488.58
2019-02-05T06:14:13.889Z,99497.00
2019-02-05T06:16:42.088Z,99498.69
2019-02-05T06:19:10.098Z,99503.31
2019-02-05T06:21:38.352Z,99509.22
2019-02-05T06:24:06.649Z,99515.95
2019-02-05T06:26:34.660Z,99517.22
2019-02-05T06:29:02.863Z,99520.95
2019-02-05T06:31:30.898Z,99519.30
2019-02-05T06:33:58.916Z,99530.66
2019-02-05T06:36:26.913Z,99525.23
2019-02-05T06:38:54.975Z,99523.55
2019-02-05T06:41:23.290Z,99531.09
2019-02-05T06:43:51.322Z,99533.61
2019-02-05T06:46:19.293Z,99544.55
2019-02-05T06:48:47.319Z,99542.02
2019-02-05T06:51:15.336Z,99546.66
2019-02-05T06:53:43.637Z,99542.44
2019-02-05T06:56:11.624Z,99548.72
2019-02-05T06:58:46.508Z,99549.11
2019-02-05T07:01:09.728Z,99546.95
2019-02-05T07:03:37.681Z,99541.02
2019-02-05T07:06:05.789Z,99543.11
2019-02-05T07:08:33.771Z,99545.61
2019-02-05T07:11:01.726Z,99544.41
2019-02-05T07:13:29.871Z,99545.28
2019-02-05T07:15:58.165Z,99552.02
2019-02-05T07:18:26.251Z,99558.75
2019-02-05T07:20:54.228Z,99566.76
2019-02-05T07:23:22.217Z,99565.47
2019-02-05T07:25:50.393Z,99574.70
2019-02-05T07:28:24.867Z,99578.09
2019-02-05T07:30:53.276Z,99583.55
2019-02-05T07:33:21.672Z,99581.31
2019-02-05T07:35:49.742Z,99569.48
2019-02-05T07:38:17.819Z,99571.17
2019-02-05T07:40:45.881Z,99567.67
2019-02-05T07:43:14.024Z,99565.58
2019-02-05T07:45:41.983Z,99568.89
2019-02-05T07:48:10.070Z,99567.08
2019-02-05T07:50:38.129Z,99567.58
2019-02-05T07:53:06.448Z,99573.45
2019-02-05T07:55:34.454Z,99578.80
2019-02-05T07:58:02.501Z,99581.55
2019-02-05T08:00:30.708Z,99589.48
2019-02-05T08:02:59.475Z,99581.02
2019-02-05T08:05:30.124Z,99573.75
2019-02-05T08:07:58.478Z,99577.38
2019-02-05T08:10:26.932Z,99576.93
2019-02-05T08:12:54.887Z,99579.33
2019-02-05T08:15:25.689Z,99588.08
2019-02-05T08:17:53.648Z,99594.48
2019-02-05T08:20:22.295Z,99591.60
2019-02-05T08:22:50.504Z,99583.52
2019-02-05T08:25:19.081Z,99579.28
2019-02-05T08:27:47.093Z,99571.42
2019-02-05T08:30:28.097Z,99566.78
2019-02-05T08:32:57.351Z,99563.14
2019-02-05T08:35:25.626Z,99560.30
2019-02-05T08:37:53.652Z,99567.30
2019-02-05T08:40:22.646Z,99570.31
2019-02-05T08:42:50.789Z,99567.63
2019-02-05T08:45:21.456Z,99563.60
2019-02-05T08:47:49.559Z,99570.08
2019-02-05T08:50:23.366Z,99575.55
2019-02-05T08:52:52.381Z,99572.88
2019-02-05T08:55:20.480Z,99571.84
2019-02-05T08:57:49.652Z,99587.07
2019-02-05T09:00:21.498Z,99590.98
2019-02-05T09:02:49.801Z,99594.03
2019-02-05T09:05:18.175Z,99599.50
2019-02-05T09:07:46.457Z,99599.31
2019-02-05T09:10:19.542Z,99602.40
2019-02-05T09:12:49.552Z,99603.80
2019-02-05T09:15:28.889Z,99605.63
2019-02-05T09:17:47.875Z,99599.51
2019-02-05T09:20:16.631Z,99599.85
2019-02-05T09:22:45.016Z,99602.59
2019-02-05T09:25:13.191Z,99602.59
2019-02-05T09:27:41.209Z,99606.03
2019-02-05T09:30:13.831Z,99602.27
2019-02-05T09:32:41.840Z,99604.45
2019-02-05T09:35:10.248Z,99602.77
2019-02-05T09:37:38.303Z,99603.13
2019-02-05T09:40:08.939Z,99596.94
2019-02-05T09:42:37.313Z,99604.36
2019-02-05T09:45:06.715Z,99605.78
2019-02-05T09:47:34.712Z,99599.63
2019-02-05T09:50:03.216Z,99600.80
2019-02-05T09:52:31.585Z,99604.63
2019-02-05T09:54:59.976Z,99613.16
2019-02-05T09:57:28.251Z,99616.39
2019-02-05T09:59:56.246Z,99616.06
2019-02-05T10:02:24.213Z,99621.67
2019-02-05T10:04:52.461Z,99621.00
2019-02-05T10:07:20.452Z,99628.34
2019-02-05T10:09:48.763Z,99628.26
2019-02-05T10:12:16.786Z,99626.51
2019-02-05T10:14:45.014Z,99637.55
2019-02-05T10:17:12.998Z,99632.67
2019-02-05T10:19:41.097Z,99629.20
2019-02-05T10:22:09.173Z,99627.00
2019-02-05T10:24:37.464Z,99630.98
2019-02-05T10:27:05.991Z,99627.00
2019-02-05T10:29:34.563Z,99625.89
2019-02-05T10:32:02.646Z,99623.61
2019-02-05T10:34:34.161Z,99620.10
2019-02-05T10:37:00.835Z,99615.80
2019-02-05T10:39:28.845Z,99614.20
2019-02-05T10:41:56.852Z,99603.73
2019-02-05T10:44:24.879Z,99602.25
2019-02-05T10:46:53.349Z,99592.09
2019-02-05T10:49:21.375Z,99594.14
2019-02-05T10:51:49.597Z,99596.48
2019-02-05T10:54:17.998Z,99594.30
2019-02-05T10:56:47.384Z,99599.25
2019-02-05T10:59:15.735Z,99600.09
2019-02-05T11:01:43.678Z,99599.69
2019-02-05T11:04:12.130Z,99601.95
2019-02-05T11:06:40.197Z,99588.97
2019-02-05T11:09:09.999Z,99590.72
2019-02-05T11:11:38.085Z,99590.78
2019-02-05T11:14:06.395Z,99585.14
2019-02-05T11:16:34.854Z,99585.00
2019-02-05T11:19:02.854Z,99586.26
2019-02-05T11:21:30.869Z,99583.90
2019-02-05T11:24:00.800Z,99582.33
2019-02-05T11:26:28.808Z,99578.97
2019-02-05T11:28:56.792Z,99576.22
2019-02-05T11:31:24.944Z,99580.42
2019-02-05T11:33:53.117Z,99574.58
2019-02-05T11:36:21.690Z,99578.25
2019-02-05T11:38:49.816Z,99583.58
2019-02-05T11:41:18.124Z,99582.75
2019-02-05T11:43:46.215Z,99584.67
2019-02-05T11:46:14.445Z,99581.86
2019-02-05T11:48:42.476Z,99582.05
2019-02-05T11:51:10.518Z,99582.75
2019-02-05T11:53:38.753Z,99578.88
2019-02-05T11:56:06.965Z,99577.89
2019-02-05T11:58:35.194Z,99574.05
2019-02-05T12:01:10.690Z,99570.21
2019-02-05T12:03:38.623Z,99565.95
2019-02-05T12:06:06.882Z,99567.17
2019-02-05T12:08:34.864Z,99564.34
2019-02-05T12:11:02.861Z,99564.89
2019-02-05T12:13:30.844Z,99559.31
2019-02-05T12:15:59.096Z,99558.09
2019-02-05T12:18:27.224Z,99557.33
2019-02-05T12:20:55.247Z,99559.05
2019-02-05T12:23:23.545Z,99551.53
2019-02-05T12:25:51.555Z,99546.28
2019-02-05T12:28:19.650Z,99546.63
2019-02-05T12:30:47.809Z,99543.66
2019-02-05T12:33:15.754Z,99545.60
2019-02-05T12:35:44.260Z,99541.50
2019-02-05T12:38:12.554Z,99545.67
2019-02-05T12:40:40.561Z,99546.67
2019-02-05T12:43:08.518Z,99549.34
2019-02-05T12:45:37.508Z,99548.02
2019-02-05T12:48:06.004Z,99545.03
2019-02-05T12:50:35.247Z,99545.17
2019-02-05T12:53:03.535Z,99549.06
2019-02-05T12:55:31.815Z,99545.95
2019-02-05T12:58:00.067Z,99541.02
2019-02-05T13:00:40.044Z,99542.16
2019-02-05T13:03:10.288Z,99545.83
2019-02-05T13:05:38.399Z,99541.02
2019-02-05T13:08:06.471Z,99541.70
2019-02-05T13:10:37.691Z,99536.58
2019-02-05T13:13:06.986Z,99530.90
2019-02-05T13:15:35.025Z,99522.34
2019-02-05T13:18:03.029Z,99521.47
2019-02-05T13:20:31.185Z,99530.25
2019-02-05T13:23:02.091Z,99528.53
2019-02-05T13:25:30.420Z,99525.45
2019-02-05T13:27:58.450Z,99525.38
2019-02-05T13:30:29.011Z,99523.98
2019-02-05T13:32:56.943Z,99519.27
2019-02-05T13:35:24.998Z,99509.22
2019-02-05T13:37:53.700Z,99502.80
2019-02-05T13:40:23.510Z,99499.91
2019-02-05T13:42:52.429Z,99502.25
2019-02-05T13:45:23.503Z,99508.64
2019-02-05T13:47:51.535Z,99509.33
2019-02-05T13:50:32.373Z,99504.31
2019-02-05T13:52:55.085Z,99508.17
2019-02-05T13:55:29.020Z,99508.89
2019-02-05T13:57:56.988Z,99509.06
2019-02-05T14:00:37.623Z,99504.33
2019-02-05T14:03:07.178Z,99502.91
2019-02-05T14:05:35.253Z,99507.02
2019-02-05T14:08:03.273Z,99507.42
2019-02-05T14:10:31.638Z,99509.37
2019-02-05T14:12:59.656Z,99505.91
2019-02-05T14:15:31.205Z,99506.30
2019-02-05T14:17:59.353Z,99504.67
2019-02-05T14:20:27.363Z,99507.74
2019-02-05T14:22:55.434Z,99508.17
2019-02-05T14:25:23.514Z,99503.55
2019-02-05T14:27:51.511Z,99505.91
2019-02-05T14:30:44.620Z,99501.16
2019-02-05T14:33:12.640Z,99511.94
2019-02-05T14:35:40.934Z,99503.36
2019-02-05T14:38:09.412Z,99501.27
2019-02-05T14:40:37.464Z,99504.53
2019-02-05T14:43:06.411Z,99509.33
2019-02-05T14:45:34.500Z,99504.01
2019-02-05T14:48:02.891Z,99507.05
2019-02-05T14:50:31.719Z,99503.89
2019-02-05T14:52:59.667Z,99508.76
2019-02-05T14:55:28.048Z,99507.08
2019-02-05T14:57:56.485Z,99507.50
2019-02-05T15:00:27.911Z,99504.21
2019-02-05T15:02:57.567Z,99505.68
2019-02-05T15:05:25.721Z,99507.06
2019-02-05T15:07:54.056Z,99509.09
2019-02-05T15:10:22.848Z,99499.27
2019-02-05T15:12:51.149Z,99503.77
2019-02-05T15:15:19.329Z,99499.22
2019-02-05T15:17:47.780Z,99501.81
2019-02-05T15:20:25.945Z,99495.80
2019-02-05T15:22:53.927Z,99497.28
2019-02-05T15:25:22.034Z,99498.31
2019-02-05T15:27:50.071Z,99511.55
2019-02-05T15:30:24.974Z,99511.72
2019-02-05T15:33:12.617Z,99508.56
2019-02-05T15:35:45.417Z,99508.22
2019-02-05T15:38:13.487Z,99512.69
2019-02-05T15:40:41.530Z,99507.21
2019-02-05T15:43:09.499Z,99512.59
2019-02-05T15:45:37.557Z,99515.86
2019-02-05T15:48:05.646Z,99509.83
2019-02-05T15:50:33.650Z,99508.17
2019-02-05T15:53:01.753Z,99508.80
2019-02-05T15:55:30.044Z,99506.41
2019-02-05T15:57:58.338Z,99510.96
2019-02-05T16:00:26.452Z,99512.03
2019-02-05T16:02:54.535Z,99507.20
2019-02-05T16:05:22.655Z,99507.79
2019-02-05T16:07:50.939Z,99502.66
2019-02-05T16:10:19.012Z,99501.73
2019-02-05T16:12:47.083Z,99504.92
2019-02-05T16:15:15.280Z,99509.48
2019-02-05T16:17:43.268Z,99510.63
2019-02-05T16:20:11.477Z,99505.63
2019-02-05T16:22:39.562Z,99510.68
2019-02-05T16:25:09.996Z,99511.42
2019-02-05T16:27:37.996Z,99517.78
2019-02-05T16:30:12.930Z,99520.34
2019-02-05T16:32:41.093Z,99517.00
2019-02-05T16:35:09.218Z,99524.52
2019-02-05T16:37:37.267Z,99515.31
2019-02-05T16:40:10.887Z,99522.48
2019-02-05T16:42:38.908Z,99527.35
2019-02-05T16:45:10.297Z,99535.48
2019-02-05T16:47:38.394Z,99540.94
2019-02-05T16:50:12.006Z,99535.41
2019-02-05T16:52:40.063Z,99543.16
2019-02-05T16:55:08.108Z,99544.09
2019-02-05T16:57:36.201Z,99543.56
2019-02-05T17:00:19.244Z,99540.64
2019-02-05T17:02:47.303Z,99541.67
2019-02-05T17:05:15.444Z,99545.91
2019-02-05T17:07:43.765Z,99541.13
2019-02-05T17:10:13.538Z,99547.05
2019-02-05T17:12:41.977Z,99547.41
2019-02-05T17:15:11.640Z,99546.22
2019-02-05T17:17:39.743Z,99545.63
2019-02-05T17:20:11.907Z,99542.13
2019-02-05T17:22:40.239Z,99545.97
2019-02-05T17:25:10.874Z,99547.73
2019-02-05T17:27:39.383Z,99545.62
2019-02-05T17:30:11.606Z,99546.53
2019-02-05T17:32:40.525Z,99546.13
2019-02-05T17:35:08.901Z,99549.07
2019-02-05T17:37:36.906Z,99550.53
2019-02-05T17:40:06.596Z,99543.48
2019-02-05T17:42:34.855Z,99547.22
2019-02-05T17:45:03.413Z,99543.15
2019-02-05T17:47:31.526Z,99554.34
2019-02-05T17:49:59.870Z,99551.11
2019-02-05T17:52:27.926Z,99549.31
2019-02-05T17:54:56.075Z,99553.52
2019-02-05T17:57:24.182Z,99559.40
2019-02-05T17:59:52.866Z,99560.35
2019-02-05T18:02:21.103Z,99563.09
2019-02-05T18:04:49.055Z,99567.27
2019-02-05T18:07:17.460Z,99564.37
2019-02-05T18:09:45.622Z,99566.84
2019-02-05T18:12:13.746Z,99569.19
2019-02-05T18:14:41.946Z,99561.35
2019-02-05T18:17:10.292Z,99569.19
2019-02-05T18:19:38.670Z,99568.56
2019-02-05T18:22:08.051Z,99574.13
2019-02-05T18:24:36.278Z,99577.38
2019-02-05T18:27:05.744Z,99577.59
2019-02-05T18:29:33.779Z,99582.31
2019-02-05T18:32:02.223Z,99580.22
2019-02-05T18:34:30.281Z,99583.23
2019-02-05T18:36:58.425Z,99587.81
2019-02-05T18:39:26.679Z,99586.83
2019-02-05T18:41:55.055Z,99583.77
2019-02-05T18:44:23.064Z,99583.11
2019-02-05T18:46:51.271Z,99589.21
2019-02-05T18:49:19.411Z,99584.50
2019-02-05T18:51:47.530Z,99585.28
2019-02-05T18:54:15.818Z,99586.67
2019-02-05T18:56:43.789Z,99587.23
2019-02-05T18:59:12.013Z,99583.95
2019-02-05T19:01:40.175Z,99584.07
2019-02-05T19:04:08.362Z,99598.59
2019-02-05T19:06:36.585Z,99588.02
2019-02-05T19:09:12.717Z,99583.36
2019-02-05T19:11:40.855Z,99584.38
2019-02-05T19:14:08.858Z,99583.84
2019-02-05T19:16:36.878Z,99592.80
2019-02-05T19:19:14.579Z,99592.36
2019-02-05T19:21:36.926Z,99587.89
2019-02-05T19:24:27.646Z,99590.48
2019-02-05T19:26:55.747Z,99589.20
2019-02-05T19:29:24.467Z,99588.70
2019-02-05T19:31:53.062Z,99592.69
2019-02-05T19:34:21.278Z,99588.33
2019-02-05T19:36:49.982Z,99591.88
2019-02-05T19:39:18.545Z,99592.34
2019-02-05T19:41:48.074Z,99598.75
2019-02-05T19:44:16.091Z,99595.80
2019-02-05T19:47:02.248Z,99593.79
2019-02-05T19:49:45.624Z,99593.78
2019-02-05T19:52:13.904Z,99589.50
2019-02-05T19:54:41.969Z,99591.77
2019-02-05T19:57:10.097Z,99594.12
2019-02-05T19:59:39.994Z,99585.16
2019-02-05T20:02:09.438Z,99584.26
2019-02-05T20:04:37.528Z,99583.36
2019-02-05T20:07:06.699Z,99583.03
2019-02-05T20:09:35.103Z,99582.37
2019-02-05T20:12:03.693Z,99584.03
2019-02-05T20:14:31.816Z,99581.64
2019-02-05T20:17:00.237Z,99582.48
2019-02-05T20:19:28.360Z,99576.51
2019-02-05T20:21:56.407Z,99584.92
2019-02-05T20:24:24.667Z,99577.40
2019-02-05T20:26:53.891Z,99583.66
2019-02-05T20:29:22.514Z,99582.10
2019-02-05T20:31:50.611Z,99576.05
2019-02-05T20:34:19.080Z,99571.16
2019-02-05T20:36:47.666Z,99571.53
2019-02-05T20:39:17.960Z,99575.52
2019-02-05T20:41:46.020Z,99581.44
2019-02-05T20:44:14.347Z,99575.52
2019-02-05T20:46:42.441Z,99575.61
2019-02-05T20:49:10.481Z,99581.57
2019-02-05T20:51:38.485Z,99583.42
2019-02-05T20:54:06.980Z,99590.70
2019-02-05T20:56:35.280Z,99584.81
2019-02-05T20:59:04.043Z,99584.86
2019-02-05T21:01:32.252Z,99583.63
2019-02-05T21:04:01.746Z,99592.04
2019-02-05T21:06:30.300Z,99587.78
2019-02-05T21:08:58.568Z,99592.96
2019-02-05T21:11:27.044Z,99593.50
2019-02-05T21:13:55.153Z,99592.96
2019-02-05T21:16:23.241Z,99594.80
2019-02-05T21:18:51.245Z,99590.66
2019-02-05T21:21:19.606Z,99589.92
2019-02-05T21:23:47.796Z,99593.34
2019-02-05T21:26:16.002Z,99596.00
2019-02-05T21:28:45.267Z,99602.78
2019-02-05T21:31:14.809Z,99607.44
2019-02-05T21:33:42.934Z,99605.81
2019-02-05T21:36:11.229Z,99616.05
2019-02-05T21:38:39.456Z,99619.52
2019-02-05T21:41:07.581Z,99614.43
2019-02-05T21:43:35.753Z,99614.00
2019-02-05T21:46:04.184Z,99612.67
2019-02-05T21:48:34.036Z,99612.25
2019-02-05T21:51:02.358Z,99618.16
2019-02-05T21:53:30.290Z,99614.43
2019-02-05T21:55:58.395Z,99616.12
2019-02-05T21:58:26.503Z,99616.60
2019-02-05T22:00:54.501Z,99613.55
2019-02-05T22:03:23.295Z,99611.47
2019-02-05T22:05:54.062Z,99609.95
2019-02-05T22:08:22.555Z,99611.20
2019-02-05T22:10:50.718Z,99612.05
2019-02-05T22:13:18.887Z,99611.69
2019-02-05T22:15:46.998Z,99609.25
2019-02-05T22:18:15.070Z,99603.77
2019-02-05T22:20:44.473Z,99593.58
2019-02-05T22:23:12.977Z,99600.20
2019-02-05T22:25:40.996Z,99598.48
2019-02-05T22:28:09.168Z,99593.00
2019-02-05T22:30:37.404Z,99588.16
2019-02-05T22:33:05.834Z,99588.64
2019-02-05T22:35:34.591Z,99579.95
2019-02-05T22:38:02.651Z,99582.06
2019-02-05T22:40:30.690Z,99587.16
2019-02-05T22:42:58.701Z,99576.22
2019-02-05T22:45:28.825Z,99584.63
2019-02-05T22:47:57.264Z,99577.41
2019-02-05T22:50:27.768Z,99577.06
2019-02-05T22:52:56.227Z,99577.03
2019-02-05T22:55:24.537Z,99568.55
2019-02-05T22:57:52.526Z,99572.06
2019-02-05T23:00:51.042Z,99561.91
2019-02-05T23:03:25.600Z,99565.43
2019-02-05T23:06:44.637Z,99559.59
2019-02-05T23:09:18.546Z,99562.81
2019-02-05T23:12:27.589Z,99555.22
2019-02-05T23:15:13.959Z,99559.73
2019-02-05T23:17:42.133Z,99554.70
2019-02-05T23:20:14.795Z,99558.46
2019-02-05T23:22:43.013Z,99550.44
2019-02-05T23:25:11.330Z,99553.46
2019-02-05T23:27:39.496Z,99551.45
2019-02-05T23:30:13.859Z,99543.50
2019-02-05T23:32:41.983Z,99540.61
2019-02-05T23:35:10.119Z,99535.16
2019-02-05T23:37:38.263Z,99537.74
2019-02-05T23:40:06.960Z,99532.73
2019-02-05T23:42:35.219Z,99534.43
2019-02-05T23:45:04.885Z,99530.99
2019-02-05T23:47:33.086Z,99531.84
2019-02-05T23:50:01.071Z,99527.73
2019-02-05T23:52:29.149Z,99529.11
2019-02-05T23:54:57.073Z,99528.69
2019-02-05T23:57:25.198Z,99529.11
2019-02-05T23:59:53.157Z,99533.43
